createdAt,value
2016-02-15T00:00:40.285Z,80.56
2016-02-15T00:01:40.287Z,80.37
2016-02-15T00:02:40.290Z,80.37
2016-02-15T00:03:40.293Z,80.46
2016-02-15T00:04:40.279Z,80.65
2016-02-15T00:05:40.281Z,81.17
2016-02-15T00:06:40.285Z,81.13
2016-02-15T00:07:40.271Z,80.69
2016-02-15T00:08:40.274Z,80.56
2016-02-15T00:09:40.277Z,80.79
2016-02-15T00:10:40.279Z,80.79
2016-02-15T00:11:40.267Z,80.65
2016-02-15T00:12:40.270Z,80.69
2016-02-15T00:13:40.272Z,80.27
2016-02-15T00:14:40.275Z,80.37
2016-02-15T00:15:40.278Z,80.32
2016-02-15T00:16:40.265Z,80.6
2016-02-15T00:17:40.267Z,80.6
2016-02-15T00:18:40.255Z,80.6
2016-02-15T00:19:40.257Z,80.88
2016-02-15T00:20:40.261Z,80.6
2016-02-15T00:21:40.247Z,80.32
2016-02-15T00:22:40.265Z,80.37
2016-02-15T00:23:40.268Z,80.69
2016-02-15T00:24:40.255Z,80.51
2016-02-15T00:25:40.258Z,80.46
2016-02-15T00:26:40.244Z,80.51
2016-02-15T00:27:40.247Z,80.98
2016-02-15T00:28:40.250Z,80.65
2016-02-15T00:29:40.252Z,80.98
2016-02-15T00:30:40.240Z,80.51
2016-02-15T00:31:40.258Z,80.6
2016-02-15T00:32:40.229Z,80.51
2016-02-15T00:33:40.249Z,80.6
2016-02-15T00:34:40.235Z,80.03
2016-02-15T00:35:40.237Z,80.41
2016-02-15T00:36:40.241Z,80.03
2016-02-15T00:37:40.227Z,80.32
2016-02-15T00:38:40.229Z,80.13
2016-02-15T00:39:40.232Z,79.94
2016-02-15T00:40:40.235Z,80.32
2016-02-15T00:41:40.223Z,80.32
2016-02-15T00:42:40.225Z,80.13
2016-02-15T00:43:40.228Z,80.22
2016-02-15T00:44:40.231Z,80.03
2016-02-15T00:45:40.218Z,79.94
2016-02-15T00:46:40.220Z,80.32
2016-02-15T00:47:40.222Z,80.32
2016-02-15T00:48:40.226Z,80.32
2016-02-15T00:49:40.213Z,79.74
2016-02-15T00:50:40.216Z,79.84
2016-02-15T00:51:40.203Z,79.84
2016-02-15T00:52:40.221Z,79.84
2016-02-15T00:53:40.208Z,79.94
2016-02-15T00:54:40.227Z,79.94
2016-02-15T00:55:40.229Z,79.94
2016-02-15T00:56:40.200Z,80.03
2016-02-15T00:57:40.203Z,80.03
2016-02-15T00:58:40.206Z,79.84
2016-02-15T00:59:40.052Z,79.84
2016-02-15T01:00:40.195Z,79.65
2016-02-15T01:01:40.199Z,79.55
2016-02-15T01:02:40.201Z,79.46
2016-02-15T01:03:40.203Z,79.84
2016-02-15T01:04:40.206Z,79.65
2016-02-15T01:05:40.193Z,79.36
2016-02-15T01:06:40.196Z,79.17
2016-02-15T01:07:40.183Z,79.17
2016-02-15T01:08:40.185Z,79.27
2016-02-15T01:09:40.204Z,79.17
2016-02-15T01:10:40.191Z,79.36
2016-02-15T01:11:40.178Z,79.65
2016-02-15T01:12:40.179Z,79.55
2016-02-15T01:13:40.172Z,79.65
2016-02-15T01:14:40.163Z,79.65
2016-02-15T01:15:40.170Z,79.74
2016-02-15T01:16:40.130Z,79.74
2016-02-15T01:17:40.122Z,79.36
2016-02-15T01:18:40.121Z,79.84
2016-02-15T01:19:40.104Z,79.55
2016-02-15T01:20:40.117Z,79.36
2016-02-15T01:21:40.101Z,79.74
2016-02-15T01:22:40.100Z,79.27
2016-02-15T01:23:40.085Z,79.36
2016-02-15T01:24:40.087Z,79.46
2016-02-15T01:25:40.087Z,79.27
2016-02-15T01:26:40.088Z,79.36
2016-02-15T01:27:40.090Z,79.36
2016-02-15T01:28:40.076Z,79.36
2016-02-15T01:29:40.078Z,79.17
2016-02-15T01:30:40.081Z,79.46
2016-02-15T01:31:40.083Z,79.46
2016-02-15T01:32:40.071Z,79.27
2016-02-15T01:33:40.073Z,79.27
2016-02-15T01:34:40.075Z,79.55
2016-02-15T01:35:40.079Z,79.46
2016-02-15T01:36:40.065Z,79.36
2016-02-15T01:37:40.083Z,79.55
2016-02-15T01:38:40.055Z,79.55
2016-02-15T01:39:40.057Z,79.46
2016-02-15T01:40:40.060Z,79.36
2016-02-15T01:41:40.063Z,79.65
2016-02-15T01:42:40.050Z,79.27
2016-02-15T01:43:40.053Z,79.17
2016-02-15T01:44:40.056Z,79.17
2016-02-15T01:45:40.058Z,79.36
2016-02-15T01:46:40.061Z,79.27
2016-02-15T01:47:40.048Z,79.84
2016-02-15T01:48:40.050Z,79.27
2016-02-15T01:49:40.039Z,79.27
2016-02-15T01:50:40.072Z,79.27
2016-02-15T01:51:40.058Z,79.17
2016-02-15T01:52:40.046Z,79.36
2016-02-15T01:53:40.033Z,79.27
2016-02-15T01:54:40.051Z,79.36
2016-02-15T01:55:40.054Z,79.65
2016-02-15T01:56:40.057Z,79.27
2016-02-15T01:57:40.027Z,79.27
2016-02-15T01:58:40.031Z,79.27
2016-02-15T01:59:40.033Z,79.27
2016-02-15T02:00:40.035Z,79.36
2016-02-15T02:01:40.039Z,79.46
2016-02-15T02:02:40.026Z,79.55
2016-02-15T02:03:40.028Z,79.27
2016-02-15T02:04:40.032Z,79.36
2016-02-15T02:05:40.034Z,79.55
2016-02-15T02:06:40.021Z,79.36
2016-02-15T02:07:40.024Z,79.55
2016-02-15T02:08:40.026Z,79.36
2016-02-15T02:09:40.029Z,79.55
2016-02-15T02:10:40.016Z,79.36
2016-02-15T02:11:40.034Z,79.08
2016-02-15T02:12:40.021Z,79.46
2016-02-15T02:13:40.024Z,79.42
2016-02-15T02:14:40.026Z,79.36
2016-02-15T02:15:40.014Z,79.36
2016-02-15T02:16:40.017Z,79.46
2016-02-15T02:17:40.003Z,79.36
2016-02-15T02:18:40.037Z,79.46
2016-02-15T02:19:40.009Z,79.46
2016-02-15T02:20:40.011Z,79.55
2016-02-15T02:21:40.014Z,79.52
2016-02-15T02:22:40.002Z,79.55
2016-02-15T02:23:40.005Z,79.33
2016-02-15T02:24:40.007Z,79.74
2016-02-15T02:25:39.994Z,79.71
2016-02-15T02:26:40.012Z,79.65
2016-02-15T02:27:40.000Z,79.55
2016-02-15T02:28:40.002Z,79.46
2016-02-15T02:29:40.004Z,79.61
2016-02-15T02:30:39.836Z,79.61
2016-02-15T02:31:39.838Z,79.61
2016-02-15T02:32:39.997Z,79.74
2016-02-15T02:33:39.999Z,78.95
2016-02-15T02:34:39.987Z,78.95
2016-02-15T02:35:39.990Z,79.14
2016-02-15T02:36:39.993Z,78.75
2016-02-15T02:37:39.979Z,78.75
2016-02-15T02:38:39.982Z,79.04
2016-02-15T02:39:39.969Z,78.95
2016-02-15T02:40:39.987Z,79.04
2016-02-15T02:41:39.974Z,79.14
2016-02-15T02:42:39.977Z,78.95
2016-02-15T02:43:39.979Z,79.33
2016-02-15T02:44:39.982Z,79.61
2016-02-15T02:45:39.970Z,79.61
2016-02-15T02:46:39.972Z,79.04
2016-02-15T02:47:39.975Z,78.95
2016-02-15T02:48:39.978Z,79.61
2016-02-15T02:49:39.965Z,79.71
2016-02-15T02:50:39.967Z,79.52
2016-02-15T02:51:39.955Z,79.61
2016-02-15T02:52:39.972Z,79.52
2016-02-15T02:53:39.960Z,79.33
2016-02-15T02:54:39.963Z,79.42
2016-02-15T02:55:39.980Z,79.61
2016-02-15T02:56:39.952Z,79.52
2016-02-15T02:57:39.955Z,79.42
2016-02-15T02:58:39.942Z,79.33
2016-02-15T02:59:39.944Z,79.52
2016-02-15T03:00:39.947Z,79.52
2016-02-15T03:01:39.950Z,79.52
2016-02-15T03:02:39.952Z,79.42
2016-02-15T03:03:39.955Z,79.42
2016-02-15T03:04:39.942Z,79.61
2016-02-15T03:05:39.961Z,79.33
2016-02-15T03:06:39.932Z,78.95
2016-02-15T03:07:39.935Z,79.71
2016-02-15T03:08:39.938Z,79.52
2016-02-15T03:09:39.956Z,79.14
2016-02-15T03:10:39.927Z,79.14
2016-02-15T03:11:39.946Z,79.61
2016-02-15T03:12:39.932Z,79.71
2016-02-15T03:13:39.920Z,79.71
2016-02-15T03:14:39.922Z,79.04
2016-02-15T03:15:39.926Z,79.14
2016-02-15T03:16:39.928Z,78.66
2016-02-15T03:17:39.931Z,78.66
2016-02-15T03:18:39.948Z,79.04
2016-02-15T03:19:39.920Z,78.66
2016-02-15T03:20:39.939Z,78.66
2016-02-15T03:21:39.910Z,78.66
2016-02-15T03:22:39.913Z,78.66
2016-02-15T03:23:39.916Z,78.66
2016-02-15T03:24:39.919Z,79.14
2016-02-15T03:25:39.905Z,79.14
2016-02-15T03:26:39.924Z,78.85
2016-02-15T03:27:39.911Z,78.66
2016-02-15T03:28:39.898Z,78.95
2016-02-15T03:29:39.900Z,78.85
2016-02-15T03:30:39.902Z,78.95
2016-02-15T03:31:39.906Z,78.66
2016-02-15T03:32:39.893Z,79.04
2016-02-15T03:33:39.911Z,78.95
2016-02-15T03:34:39.898Z,79.14
2016-02-15T03:35:39.901Z,79.14
2016-02-15T03:36:39.888Z,78.95
2016-02-15T03:37:39.890Z,79.04
2016-02-15T03:38:39.893Z,79.04
2016-02-15T03:39:39.880Z,78.66
2016-02-15T03:40:39.883Z,79.04
2016-02-15T03:41:39.885Z,78.75
2016-02-15T03:42:39.888Z,78.56
2016-02-15T03:43:39.876Z,79.04
2016-02-15T03:44:39.878Z,78.85
2016-02-15T03:45:39.881Z,79.14
2016-02-15T03:46:39.884Z,78.85
2016-02-15T03:47:39.886Z,79.04
2016-02-15T03:48:39.889Z,78.85
2016-02-15T03:49:39.876Z,79.14
2016-02-15T03:50:39.864Z,79.04
2016-02-15T03:51:39.881Z,79.23
2016-02-15T03:52:39.869Z,79.04
2016-02-15T03:53:39.856Z,78.95
2016-02-15T03:54:39.859Z,79.14
2016-02-15T03:55:39.877Z,78.85
2016-02-15T03:56:39.863Z,79.14
2016-02-15T03:57:39.866Z,79.04
2016-02-15T03:58:39.853Z,79.04
2016-02-15T03:59:39.856Z,78.85
2016-02-15T04:00:39.858Z,79.14
2016-02-15T04:01:39.861Z,79.14
2016-02-15T04:02:39.864Z,78.95
2016-02-15T04:03:39.852Z,79.14
2016-02-15T04:04:39.854Z,79.04
2016-02-15T04:05:39.840Z,79.14
2016-02-15T04:06:39.844Z,78.95
2016-02-15T04:07:39.846Z,78.75
2016-02-15T04:08:39.833Z,79.14
2016-02-15T04:09:39.836Z,79.04
2016-02-15T04:10:39.838Z,79.23
2016-02-15T04:11:39.841Z,78.95
2016-02-15T04:12:39.844Z,78.95
2016-02-15T04:13:39.831Z,79.14
2016-02-15T04:14:39.834Z,78.95
2016-02-15T04:15:39.821Z,78.75
2016-02-15T04:16:39.823Z,79.04
2016-02-15T04:17:39.826Z,78.56
2016-02-15T04:18:39.829Z,78.75
2016-02-15T04:19:39.816Z,78.75
2016-02-15T04:20:39.819Z,78.85
2016-02-15T04:21:39.822Z,78.85
2016-02-15T04:22:39.808Z,78.56
2016-02-15T04:23:39.811Z,79.04
2016-02-15T04:24:39.814Z,78.47
2016-02-15T04:25:39.816Z,78.85
2016-02-15T04:26:39.804Z,78.75
2016-02-15T04:27:39.806Z,78.85
2016-02-15T04:28:39.808Z,79.04
2016-02-15T04:29:39.797Z,78.75
2016-02-15T04:30:39.799Z,79.04
2016-02-15T04:31:39.801Z,79.04
2016-02-15T04:32:39.805Z,78.95
2016-02-15T04:33:39.791Z,79.04
2016-02-15T04:34:39.794Z,78.95
2016-02-15T04:35:39.780Z,78.85
2016-02-15T04:36:39.799Z,78.95
2016-02-15T04:37:39.785Z,78.85
2016-02-15T04:38:39.789Z,78.66
2016-02-15T04:39:39.776Z,78.75
2016-02-15T04:40:39.793Z,78.85
2016-02-15T04:41:39.782Z,79.04
2016-02-15T04:42:39.784Z,78.75
2016-02-15T04:43:39.787Z,78.85
2016-02-15T04:44:39.790Z,78.85
2016-02-15T04:45:39.776Z,78.75
2016-02-15T04:46:39.779Z,78.66
2016-02-15T04:47:39.767Z,78.75
2016-02-15T04:48:39.769Z,79.14
2016-02-15T04:49:39.772Z,79.04
2016-02-15T04:50:39.775Z,78.95
2016-02-15T04:51:39.777Z,78.95
2016-02-15T04:52:39.765Z,78.56
2016-02-15T04:53:39.767Z,78.56
2016-02-15T04:54:39.769Z,78.95
2016-02-15T04:55:39.773Z,78.95
2016-02-15T04:56:39.759Z,78.75
2016-02-15T04:57:39.761Z,78.95
2016-02-15T04:58:39.749Z,79.04
2016-02-15T04:59:39.752Z,78.75
2016-02-15T05:00:39.754Z,79.23
2016-02-15T05:01:39.742Z,78.95
2016-02-15T05:02:39.744Z,78.66
2016-02-15T05:03:39.746Z,79.04
2016-02-15T05:04:39.734Z,79.04
2016-02-15T05:05:39.752Z,78.75
2016-02-15T05:06:39.754Z,79.04
2016-02-15T05:07:39.742Z,79.04
2016-02-15T05:08:39.744Z,78.56
2016-02-15T05:09:39.747Z,78.75
2016-02-15T05:10:39.735Z,78.85
2016-02-15T05:11:39.738Z,78.85
2016-02-15T05:12:39.724Z,78.75
2016-02-15T05:13:39.727Z,78.75
2016-02-15T05:14:39.729Z,78.85
2016-02-15T05:15:39.732Z,78.66
2016-02-15T05:16:39.735Z,78.75
2016-02-15T05:17:39.722Z,78.66
2016-02-15T05:18:39.725Z,78.56
2016-02-15T05:19:39.728Z,78.47
2016-02-15T05:20:39.730Z,78.56
2016-02-15T05:21:39.717Z,78.56
2016-02-15T05:22:39.736Z,78.66
2016-02-15T05:23:39.722Z,78.66
2016-02-15T05:24:39.709Z,78.47
2016-02-15T05:25:39.712Z,78.38
2016-02-15T05:26:39.714Z,78.66
2016-02-15T05:27:39.718Z,78.56
2016-02-15T05:28:39.720Z,78.47
2016-02-15T05:29:39.707Z,78.38
2016-02-15T05:30:39.711Z,78.38
2016-02-15T05:31:39.541Z,78.66
2016-02-15T05:32:39.700Z,78.47
2016-02-15T05:33:39.718Z,78.38
2016-02-15T05:34:39.705Z,78.47
2016-02-15T05:35:38.942Z,78.66
2016-02-15T05:36:39.695Z,78.47
2016-02-15T05:37:39.713Z,78.66
2016-02-15T05:38:39.731Z,78.38
2016-02-15T05:39:39.719Z,78.47
2016-02-15T05:40:39.768Z,78.56
2016-02-15T05:41:39.754Z,78.47
2016-02-15T05:42:39.726Z,78.47
2016-02-15T05:43:39.682Z,78.47
2016-02-15T05:44:39.685Z,78.56
2016-02-15T05:45:39.688Z,78.47
2016-02-15T05:46:39.690Z,78.95
2016-02-15T05:47:39.678Z,78.56
2016-02-15T05:48:39.681Z,78.28
2016-02-15T05:49:39.667Z,78.47
2016-02-15T05:50:39.686Z,78.85
2016-02-15T05:51:39.657Z,78.95
2016-02-15T05:52:39.676Z,79.04
2016-02-15T05:53:39.662Z,78.95
2016-02-15T05:54:39.665Z,78.75
2016-02-15T05:55:39.684Z,78.56
2016-02-15T05:56:39.686Z,78.56
2016-02-15T05:57:39.658Z,78.66
2016-02-15T05:58:39.676Z,78.56
2016-02-15T05:59:39.647Z,78.56
2016-02-15T06:00:39.963Z,78.85
2016-02-15T06:01:39.668Z,78.75
2016-02-15T06:02:39.656Z,78.56
2016-02-15T06:03:39.642Z,78.75
2016-02-15T06:04:39.645Z,78.56
2016-02-15T06:05:39.647Z,78.47
2016-02-15T06:06:39.650Z,78.56
2016-02-15T06:07:39.638Z,78.85
2016-02-15T06:08:39.655Z,78.28
2016-02-15T06:09:39.627Z,78.85
2016-02-15T06:10:39.646Z,78.38
2016-02-15T06:11:39.633Z,78.56
2016-02-15T06:12:39.635Z,78.95
2016-02-15T06:13:39.623Z,78.28
2016-02-15T06:14:39.625Z,78.28
2016-02-15T06:15:39.629Z,78.56
2016-02-15T06:16:39.631Z,78.47
2016-02-15T06:17:39.633Z,78.75
2016-02-15T06:18:39.621Z,78.66
2016-02-15T06:19:39.607Z,78.85
2016-02-15T06:20:39.610Z,78.95
2016-02-15T06:21:39.612Z,78.38
2016-02-15T06:22:39.631Z,78.38
2016-02-15T06:23:39.603Z,78.95
2016-02-15T06:24:39.621Z,78.47
2016-02-15T06:25:39.608Z,78.38
2016-02-15T06:26:39.610Z,78.66
2016-02-15T06:27:39.598Z,78.47
2016-02-15T06:28:39.600Z,78.56
2016-02-15T06:29:39.603Z,78.28
2016-02-15T06:30:39.590Z,78.66
2016-02-15T06:31:39.592Z,78.66
2016-02-15T06:32:39.595Z,78.38
2016-02-15T06:33:39.598Z,78.56
2016-02-15T06:34:39.585Z,78.47
2016-02-15T06:35:39.588Z,78.38
2016-02-15T06:36:39.591Z,78.47
2016-02-15T06:37:39.593Z,78.56
2016-02-15T06:38:39.581Z,78.66
2016-02-15T06:39:39.568Z,78.56
2016-02-15T06:40:39.585Z,78.66
2016-02-15T06:41:39.574Z,78.56
2016-02-15T06:42:39.576Z,78.56
2016-02-15T06:43:39.578Z,78.38
2016-02-15T06:44:39.565Z,78.19
2016-02-15T06:45:39.568Z,78.66
2016-02-15T06:46:39.554Z,78.56
2016-02-15T06:47:39.574Z,78.19
2016-02-15T06:48:39.560Z,78.56
2016-02-15T06:49:39.562Z,78.09
2016-02-15T06:50:39.566Z,78.56
2016-02-15T06:51:39.553Z,78.19
2016-02-15T06:52:39.555Z,78.38
2016-02-15T06:53:39.543Z,78.56
2016-02-15T06:54:39.561Z,78.19
2016-02-15T06:55:39.564Z,78.09
2016-02-15T06:56:39.567Z,78.66
2016-02-15T06:57:39.537Z,78.66
2016-02-15T06:58:39.540Z,78.19
2016-02-15T06:59:39.543Z,78.38
2016-02-15T07:00:39.545Z,78.56
2016-02-15T07:01:39.533Z,78.47
2016-02-15T07:02:39.536Z,78.47
2016-02-15T07:03:39.538Z,78.19
2016-02-15T07:04:39.572Z,79.04
2016-02-15T07:05:39.528Z,78.75
2016-02-15T07:06:39.530Z,78.56
2016-02-15T07:07:39.533Z,78.47
2016-02-15T07:08:39.521Z,78.66
2016-02-15T07:09:39.523Z,78.85
2016-02-15T07:10:39.526Z,78.75
2016-02-15T07:11:39.529Z,78.56
2016-02-15T07:12:39.531Z,78.47
2016-02-15T07:13:39.519Z,78.85
2016-02-15T07:14:39.505Z,78.38
2016-02-15T07:15:39.523Z,78.38
2016-02-15T07:16:39.511Z,78.85
2016-02-15T07:17:39.498Z,78.47
2016-02-15T07:18:39.501Z,78.47
2016-02-15T07:19:39.503Z,78.66
2016-02-15T07:20:39.506Z,78.47
2016-02-15T07:21:39.509Z,78.47
2016-02-15T07:22:39.496Z,78.56
2016-02-15T07:23:39.499Z,78.47
2016-02-15T07:24:39.625Z,78.38
2016-02-15T07:25:39.504Z,78.47
2016-02-15T07:26:39.490Z,78.56
2016-02-15T07:27:39.492Z,78.66
2016-02-15T07:28:39.495Z,78.47
2016-02-15T07:29:39.514Z,78.38
2016-02-15T07:30:39.470Z,78.19
2016-02-15T07:31:39.489Z,78.19
2016-02-15T07:32:39.491Z,78.47
2016-02-15T07:33:39.478Z,78.47
2016-02-15T07:34:39.481Z,78.56
2016-02-15T07:35:39.468Z,78.47
2016-02-15T07:36:39.471Z,78.09
2016-02-15T07:37:39.458Z,78.19
2016-02-15T07:38:39.460Z,78
2016-02-15T07:39:39.464Z,77.9
2016-02-15T07:40:39.466Z,77.9
2016-02-15T07:41:39.469Z,77.71
2016-02-15T07:42:39.455Z,77.71
2016-02-15T07:43:39.458Z,77.62
2016-02-15T07:44:39.461Z,77.71
2016-02-15T07:45:39.479Z,78
2016-02-15T07:46:39.451Z,77.9
2016-02-15T07:47:39.453Z,78
2016-02-15T07:48:39.441Z,78.09
2016-02-15T07:49:39.459Z,78.13
2016-02-15T07:50:39.446Z,77.81
2016-02-15T07:51:39.432Z,77.62
2016-02-15T07:52:39.435Z,77.52
2016-02-15T07:53:39.454Z,77.52
2016-02-15T07:54:39.440Z,77.75
2016-02-15T07:55:39.459Z,77.33
2016-02-15T07:56:39.446Z,77.56
2016-02-15T07:57:39.434Z,77.47
2016-02-15T07:58:39.436Z,77.43
2016-02-15T07:59:39.439Z,77.56
2016-02-15T08:00:39.442Z,77.56
2016-02-15T08:01:39.428Z,77.18
2016-02-15T08:02:39.431Z,77.18
2016-02-15T08:03:39.434Z,77.47
2016-02-15T08:04:39.422Z,77.18
2016-02-15T08:05:39.424Z,77.47
2016-02-15T08:06:39.427Z,77.56
2016-02-15T08:07:39.429Z,77.47
2016-02-15T08:08:39.416Z,77.18
2016-02-15T08:09:39.435Z,77.37
2016-02-15T08:10:39.421Z,77.18
2016-02-15T08:11:39.424Z,77.56
2016-02-15T08:12:39.411Z,77.37
2016-02-15T08:13:39.414Z,77.09
2016-02-15T08:14:39.417Z,76.99
2016-02-15T08:15:39.419Z,77.75
2016-02-15T08:16:39.406Z,77.18
2016-02-15T08:17:39.410Z,77.09
2016-02-15T08:18:39.412Z,77.37
2016-02-15T08:19:39.415Z,77.56
2016-02-15T08:20:39.401Z,77.56
2016-02-15T08:21:39.467Z,77.09
2016-02-15T08:22:39.391Z,77.47
2016-02-15T08:23:39.394Z,77.37
2016-02-15T08:24:53.490Z,77.56
2016-02-15T08:25:39.398Z,77.18
2016-02-15T08:26:39.418Z,77.09
2016-02-15T08:27:39.404Z,77.09
2016-02-15T08:28:39.406Z,77.66
2016-02-15T08:29:39.395Z,77.75
2016-02-15T08:30:39.397Z,76.99
2016-02-15T08:31:39.400Z,77.47
2016-02-15T08:32:39.386Z,77.75
2016-02-15T08:33:39.389Z,76.9
2016-02-15T08:34:39.392Z,77.09
2016-02-15T08:35:39.395Z,77.56
2016-02-15T08:36:39.383Z,77.18
2016-02-15T08:37:39.385Z,77.09
2016-02-15T08:38:39.387Z,77.09
2016-02-15T08:39:39.390Z,77.66
2016-02-15T08:40:39.378Z,77.09
2016-02-15T08:41:39.380Z,77.56
2016-02-15T08:42:39.398Z,77.28
2016-02-15T08:43:39.386Z,77.18
2016-02-15T08:44:39.372Z,77.66
2016-02-15T08:45:39.375Z,77.09
2016-02-15T08:46:39.377Z,77.09
2016-02-15T08:47:39.380Z,77.28
2016-02-15T08:48:39.382Z,77.37
2016-02-15T08:49:39.371Z,77.18
2016-02-15T08:50:39.404Z,76.99
2016-02-15T08:51:39.375Z,76.99
2016-02-15T08:52:39.426Z,76.99
2016-02-15T08:53:39.365Z,77.09
2016-02-15T08:54:39.633Z,76.9
2016-02-15T08:55:39.637Z,76.61
2016-02-15T08:56:39.982Z,76.42
2016-02-15T08:57:39.579Z,76.23
2016-02-15T08:58:39.504Z,76.23
2016-02-15T08:59:39.647Z,76.52
2016-02-15T09:00:39.650Z,76.23
2016-02-15T09:01:39.434Z,76.32
2016-02-15T09:02:39.545Z,76.23
2016-02-15T09:03:39.751Z,76.42
2016-02-15T09:04:39.425Z,76.71
2016-02-15T09:05:39.539Z,76.9
2016-02-15T09:06:39.588Z,76.8
2016-02-15T09:07:39.450Z,76.23
2016-02-15T09:08:39.624Z,76.52
2016-02-15T09:09:39.361Z,76.99
2016-02-15T09:10:39.364Z,76.61
2016-02-15T09:11:39.366Z,76.23
2016-02-15T09:12:39.354Z,76.23
2016-02-15T09:13:39.357Z,75.57
2016-02-15T09:14:39.598Z,75.57
2016-02-15T09:15:39.350Z,75.57
2016-02-15T09:16:39.353Z,76.14
2016-02-15T09:17:39.356Z,75.57
2016-02-15T09:18:39.358Z,75.09
2016-02-15T09:19:39.345Z,75.28
2016-02-15T09:20:39.333Z,75.57
2016-02-15T09:21:39.350Z,75
2016-02-15T09:22:39.338Z,75.09
2016-02-15T09:23:39.341Z,75.09
2016-02-15T09:24:39.608Z,75.09
2016-02-15T09:25:39.408Z,74.71
2016-02-15T09:26:39.583Z,74.05
2016-02-15T09:27:39.538Z,74.71
2016-02-15T09:28:39.588Z,74.9
2016-02-15T09:29:39.560Z,75.09
2016-02-15T09:30:39.515Z,75.67
2016-02-15T09:31:39.424Z,75.09
2016-02-15T09:32:39.568Z,75.38
2016-02-15T09:33:39.398Z,75.28
2016-02-15T09:34:39.573Z,74.9
2016-02-15T09:35:39.560Z,74.9
2016-02-15T09:36:39.563Z,74.71
2016-02-15T09:37:39.518Z,73.29
2016-02-15T09:38:39.443Z,74.33
2016-02-15T09:39:39.398Z,74.52
2016-02-15T09:40:39.386Z,74.05
2016-02-15T09:41:39.545Z,74.33
2016-02-15T09:42:39.501Z,74.43
2016-02-15T09:43:39.456Z,74.24
2016-02-15T09:44:39.569Z,74.15
2016-02-15T09:45:39.493Z,74.33
2016-02-15T09:46:39.605Z,73.86
2016-02-15T09:47:39.546Z,73.86
2016-02-15T09:48:39.454Z,73
2016-02-15T09:49:39.410Z,72.72
2016-02-15T09:50:39.398Z,73.1
2016-02-15T09:51:39.541Z,72.72
2016-02-15T09:52:39.403Z,73
2016-02-15T09:53:39.312Z,73.1
2016-02-15T09:54:39.314Z,72.95
2016-02-15T09:55:39.333Z,72.91
2016-02-15T09:56:39.335Z,73.1
2016-02-15T09:57:39.307Z,73
2016-02-15T09:58:39.325Z,72.95
2016-02-15T09:59:39.327Z,72.81
2016-02-15T10:00:39.316Z,72.95
2016-02-15T10:01:39.318Z,72.66
2016-02-15T10:02:39.305Z,72.66
2016-02-15T10:03:39.323Z,73.14
2016-02-15T10:04:39.310Z,73.23
2016-02-15T10:05:39.313Z,72.85
2016-02-15T10:06:39.299Z,72.56
2016-02-15T10:07:39.318Z,72.75
2016-02-15T10:08:39.305Z,72.66
2016-02-15T10:09:39.308Z,73.8
2016-02-15T10:10:39.310Z,72.19
2016-02-15T10:11:39.313Z,72.75
2016-02-15T10:12:39.315Z,72.66
2016-02-15T10:13:39.318Z,73.04
2016-02-15T10:14:39.320Z,72.47
2016-02-15T10:15:39.309Z,72.28
2016-02-15T10:16:39.311Z,72.38
2016-02-15T10:17:39.314Z,70.95
2016-02-15T10:18:39.190Z,71.33
2016-02-15T10:19:39.288Z,71.9
2016-02-15T10:20:39.278Z,72
2016-02-15T10:21:39.268Z,72
2016-02-15T10:22:39.257Z,72.28
2016-02-15T10:23:39.232Z,72.66
2016-02-15T10:24:39.230Z,72.19
2016-02-15T10:25:39.245Z,72.75
2016-02-15T10:26:39.227Z,72.09
2016-02-15T10:27:39.224Z,72.28
2016-02-15T10:28:39.208Z,72.19
2016-02-15T10:29:39.209Z,72.38
2016-02-15T10:30:39.209Z,71.71
2016-02-15T10:31:39.210Z,71.9
2016-02-15T10:32:39.211Z,71.71
2016-02-15T10:33:39.212Z,71.81
2016-02-15T10:34:39.229Z,71.52
2016-02-15T10:35:39.216Z,70.99
2016-02-15T10:36:39.219Z,70.86
2016-02-15T10:37:39.221Z,71.14
2016-02-15T10:38:39.223Z,71.14
2016-02-15T10:39:39.210Z,71.52
2016-02-15T10:40:39.212Z,71.33
2016-02-15T10:41:39.200Z,71.43
2016-02-15T10:42:39.202Z,71.43
2016-02-15T10:43:39.204Z,71.23
2016-02-15T10:44:39.207Z,71.81
2016-02-15T10:45:39.209Z,72.19
2016-02-15T10:46:39.212Z,71.9
2016-02-15T10:47:39.199Z,72.19
2016-02-15T10:48:39.201Z,72.47
2016-02-15T10:49:39.205Z,72.19
2016-02-15T10:50:39.223Z,72.19
2016-02-15T10:51:39.193Z,72.28
2016-02-15T10:52:39.213Z,71.81
2016-02-15T10:53:39.199Z,71.81
2016-02-15T10:54:39.201Z,71.23
2016-02-15T10:55:39.205Z,71.81
2016-02-15T10:56:39.254Z,71.04
2016-02-15T10:57:39.195Z,71.52
2016-02-15T10:58:39.213Z,71.71
2016-02-15T10:59:39.200Z,71.81
2016-02-15T11:00:39.203Z,71.81
2016-02-15T11:01:39.236Z,71.9
2016-02-15T11:02:39.208Z,71.9
2016-02-15T11:03:39.211Z,71.23
2016-02-15T11:04:39.197Z,71.81
2016-02-15T11:05:39.217Z,72.19
2016-02-15T11:06:39.203Z,72.38
2016-02-15T11:07:39.189Z,72.19
2016-02-15T11:08:39.193Z,72.28
2016-02-15T11:09:39.195Z,72.38
2016-02-15T11:10:39.197Z,72.28
2016-02-15T11:11:39.201Z,72.19
2016-02-15T11:12:39.203Z,72.09
2016-02-15T11:13:39.191Z,72.13
2016-02-15T11:14:39.209Z,71.66
2016-02-15T11:15:39.196Z,72.03
2016-02-15T11:16:39.183Z,71.56
2016-02-15T11:17:39.201Z,71.46
2016-02-15T11:18:39.204Z,71.66
2016-02-15T11:19:39.191Z,71.37
2016-02-15T11:20:39.209Z,70.89
2016-02-15T11:21:39.197Z,71.46
2016-02-15T11:22:39.215Z,70.89
2016-02-15T11:23:39.201Z,71.27
2016-02-15T11:24:39.205Z,71.27
2016-02-15T11:25:39.207Z,70.13
2016-02-15T11:26:39.412Z,70.32
2016-02-15T11:27:39.198Z,70.7
2016-02-15T11:28:39.200Z,70.7
2016-02-15T11:29:39.203Z,70.79
2016-02-15T11:30:39.190Z,70.13
2016-02-15T11:31:39.254Z,70.32
2016-02-15T11:32:39.257Z,69.79
2016-02-15T11:33:39.275Z,70.32
2016-02-15T11:34:39.669Z,70.36
2016-02-15T11:35:39.203Z,70.07
2016-02-15T11:36:39.205Z,70.07
2016-02-15T11:37:39.209Z,69.21
2016-02-15T11:38:39.195Z,69.79
2016-02-15T11:39:39.213Z,69.6
2016-02-15T11:40:39.200Z,69.6
2016-02-15T11:41:39.219Z,69.02
2016-02-15T11:42:39.206Z,68.65
2016-02-15T11:43:39.208Z,69.12
2016-02-15T11:44:39.211Z,69.79
2016-02-15T11:45:39.214Z,69.12
2016-02-15T11:46:39.217Z,68.27
2016-02-15T11:47:39.204Z,67.79
2016-02-15T11:48:39.222Z,68.93
2016-02-15T11:49:39.210Z,67.98
2016-02-15T11:50:39.227Z,68.27
2016-02-15T11:51:39.215Z,68.46
2016-02-15T11:52:39.218Z,67.98
2016-02-15T11:53:39.235Z,68.36
2016-02-15T11:54:39.223Z,68.33
2016-02-15T11:55:39.226Z,67.98
2016-02-15T11:56:39.228Z,68.52
2016-02-15T11:57:39.215Z,67.85
2016-02-15T11:58:39.218Z,68.33
2016-02-15T11:59:39.220Z,68.42
2016-02-15T12:00:39.223Z,68.52
2016-02-15T12:01:39.242Z,67.94
2016-02-15T12:02:39.245Z,68.42
2016-02-15T12:03:39.247Z,68.9
2016-02-15T12:04:39.234Z,69.18
2016-02-15T12:05:39.237Z,68.9
2016-02-15T12:06:39.239Z,69.27
2016-02-15T12:07:39.226Z,69.56
2016-02-15T12:08:39.229Z,69.94
2016-02-15T12:09:39.231Z,69.94
2016-02-15T12:10:39.234Z,69.85
2016-02-15T12:11:39.269Z,70.04
2016-02-15T12:12:39.224Z,70.04
2016-02-15T12:13:39.227Z,70.13
2016-02-15T12:14:39.245Z,70.32
2016-02-15T12:15:39.233Z,70.32
2016-02-15T12:16:39.438Z,70.51
2016-02-15T12:17:39.238Z,70.42
2016-02-15T12:18:39.241Z,70.51
2016-02-15T12:19:39.228Z,70.79
2016-02-15T12:20:39.246Z,70.04
2016-02-15T12:21:39.249Z,70.42
2016-02-15T12:22:39.267Z,70.79
2016-02-15T12:23:39.238Z,70.7
2016-02-15T12:24:39.241Z,70.51
2016-02-15T12:25:39.229Z,70.32
2016-02-15T12:26:39.246Z,69.56
2016-02-15T12:27:39.234Z,70.04
2016-02-15T12:28:39.236Z,68.9
2016-02-15T12:29:39.239Z,68.61
2016-02-15T12:30:39.242Z,68.42
2016-02-15T12:31:39.244Z,68.8
2016-02-15T12:32:39.231Z,69.18
2016-02-15T12:33:39.250Z,69.75
2016-02-15T12:34:39.236Z,68.99
2016-02-15T12:35:39.239Z,68.23
2016-02-15T12:36:39.461Z,67.85
2016-02-15T12:37:39.495Z,67.47
2016-02-15T12:38:39.450Z,68.42
2016-02-15T12:39:39.484Z,68.84
2016-02-15T12:40:39.331Z,68.46
2016-02-15T12:41:39.458Z,68.07
2016-02-15T12:42:39.400Z,68.55
2016-02-15T12:43:39.292Z,68.55
2016-02-15T12:44:39.420Z,68.17
2016-02-15T12:45:39.469Z,67.88
2016-02-15T12:46:39.581Z,67.98
2016-02-15T12:47:39.240Z,67.79
2016-02-15T12:48:39.243Z,67.79
2016-02-15T12:49:39.230Z,67.98
2016-02-15T12:50:39.264Z,67.6
2016-02-15T12:51:39.235Z,66.27
2016-02-15T12:52:39.269Z,65.41
2016-02-15T12:53:39.241Z,66.17
2016-02-15T12:54:39.274Z,66.27